createdAt,value
2022-09-29T00:00:30.625Z,1.40
2022-09-29T00:02:59.203Z,4.13
2022-09-29T00:05:29.368Z,1.80
2022-09-29T00:07:58.687Z,2.90
2022-09-29T00:10:30.774Z,2.50
2022-09-29T00:12:59.062Z,3.47
2022-09-29T00:15:29.675Z,1.80
2022-09-29T00:18:13.155Z,1.57
2022-09-29T00:20:43.581Z,1.60
2022-09-29T00:23:17.142Z,2.40
2022-09-29T00:25:50.574Z,3.13
2022-09-29T00:28:19.342Z,2.00
2022-09-29T00:30:49.424Z,1.80
2022-09-29T00:33:19.713Z,1.53
2022-09-29T00:36:03.489Z,2.43
2022-09-29T00:38:34.433Z,4.50
2022-09-29T00:41:17.999Z,2.10
2022-09-29T00:44:28.093Z,1.60
2022-09-29T00:47:11.210Z,2.13
2022-09-29T00:49:47.790Z,1.30
2022-09-29T00:52:29.545Z,1.17
2022-09-29T00:55:08.575Z,5.17
2022-09-29T00:57:48.607Z,2.43
2022-09-29T01:00:25.041Z,1.43
2022-09-29T01:03:08.202Z,2.40
2022-09-29T01:05:48.723Z,3.03
2022-09-29T01:08:37.854Z,2.00
2022-09-29T01:11:17.197Z,2.00
2022-09-29T01:13:50.331Z,1.77
2022-09-29T01:16:22.939Z,3.13
2022-09-29T01:19:00.315Z,2.07
2022-09-29T01:21:49.984Z,2.43
2022-09-29T01:24:58.816Z,2.77
2022-09-29T01:27:44.324Z,1.93
2022-09-29T01:30:29.407Z,3.40
2022-09-29T01:33:28.922Z,5.00
2022-09-29T01:36:09.052Z,2.20
2022-09-29T01:38:51.245Z,3.60
2022-09-29T01:41:28.543Z,2.93
2022-09-29T01:44:10.504Z,3.53
2022-09-29T01:46:58.852Z,3.30
2022-09-29T01:49:36.551Z,3.67
2022-09-29T01:52:10.793Z,3.67
2022-09-29T01:54:50.156Z,2.57
2022-09-29T01:57:29.224Z,2.47
2022-09-29T02:00:08.738Z,5.20
2022-09-29T02:02:48.324Z,3.60
2022-09-29T02:05:29.389Z,2.43
2022-09-29T02:08:07.946Z,3.30
2022-09-29T02:10:44.794Z,3.33
2022-09-29T02:13:20.500Z,2.43
2022-09-29T02:15:58.188Z,4.73
2022-09-29T02:18:38.039Z,4.27
2022-09-29T02:21:10.930Z,4.30
2022-09-29T02:23:40.166Z,4.23
2022-09-29T02:26:10.657Z,2.93
2022-09-29T02:28:40.482Z,4.20
2022-09-29T02:31:09.647Z,5.57
2022-09-29T02:33:39.643Z,3.40
2022-09-29T02:36:31.127Z,3.80
2022-09-29T02:39:07.766Z,3.37
2022-09-29T02:41:49.455Z,3.87
2022-09-29T02:44:48.534Z,4.53
2022-09-29T02:47:32.940Z,4.07
2022-09-29T02:50:18.645Z,3.33
2022-09-29T02:53:07.536Z,3.50
2022-09-29T02:55:49.285Z,3.50
2022-09-29T02:58:29.953Z,4.27
2022-09-29T03:01:00.681Z,4.27
2022-09-29T03:03:29.688Z,5.07
2022-09-29T03:06:00.132Z,3.47
2022-09-29T03:08:30.260Z,5.67
2022-09-29T03:11:00.065Z,4.00
2022-09-29T03:13:29.627Z,4.87
2022-09-29T03:16:07.107Z,5.17
2022-09-29T03:18:39.575Z,3.73
2022-09-29T03:21:09.476Z,4.93
2022-09-29T03:23:40.459Z,5.63
2022-09-29T03:26:08.983Z,3.97
2022-09-29T03:28:38.047Z,5.70
2022-09-29T03:31:10.507Z,4.53
2022-09-29T03:33:40.124Z,4.30
2022-09-29T03:36:09.830Z,4.30
2022-09-29T03:38:44.950Z,6.67
2022-09-29T03:41:20.418Z,3.90
2022-09-29T03:43:59.942Z,5.23
2022-09-29T03:46:29.413Z,6.37
2022-09-29T03:49:00.120Z,5.53
2022-09-29T03:51:29.354Z,4.73
2022-09-29T03:53:59.655Z,4.33
2022-09-29T03:56:33.163Z,4.17
2022-09-29T03:59:16.211Z,4.77
2022-09-29T04:01:49.842Z,5.00
2022-09-29T04:04:19.641Z,4.57
2022-09-29T04:06:54.537Z,4.60
2022-09-29T04:09:30.068Z,4.27
2022-09-29T04:11:59.850Z,5.63
2022-09-29T04:14:29.544Z,5.57
2022-09-29T04:16:59.243Z,7.07
2022-09-29T04:19:29.903Z,5.27
2022-09-29T04:21:59.397Z,5.60
2022-09-29T04:24:39.217Z,4.67
2022-09-29T04:27:09.551Z,5.43
2022-09-29T04:29:39.438Z,5.53
2022-09-29T04:32:08.771Z,6.17
2022-09-29T04:34:38.109Z,4.80
2022-09-29T04:37:11.318Z,5.87
2022-09-29T04:39:41.907Z,6.37
2022-09-29T04:42:09.886Z,5.17
2022-09-29T04:44:41.229Z,5.77
2022-09-29T04:47:09.857Z,7.13
2022-09-29T04:49:39.552Z,7.13
2022-09-29T04:52:20.368Z,6.43
2022-09-29T04:54:51.077Z,6.70
2022-09-29T04:57:20.273Z,6.40
2022-09-29T04:59:53.552Z,7.03
2022-09-29T05:02:28.534Z,8.17
2022-09-29T05:04:59.964Z,7.77
2022-09-29T05:07:29.977Z,8.60
2022-09-29T05:10:01.355Z,6.50
2022-09-29T05:12:30.214Z,8.17
2022-09-29T05:14:59.458Z,7.90
2022-09-29T05:17:29.858Z,6.77
2022-09-29T05:20:00.016Z,7.17
2022-09-29T05:22:30.591Z,7.10
2022-09-29T05:25:11.729Z,7.97
2022-09-29T05:27:40.419Z,10.63
2022-09-29T05:30:09.939Z,16.87
2022-09-29T05:32:39.968Z,9.17
2022-09-29T05:35:10.231Z,10.53
2022-09-29T05:37:40.414Z,12.63
2022-09-29T05:40:11.395Z,11.33
2022-09-29T05:42:41.209Z,17.50
2022-09-29T05:45:17.017Z,17.27
2022-09-29T05:47:51.066Z,10.60
2022-09-29T05:50:20.036Z,11.83
2022-09-29T05:53:00.131Z,13.50
2022-09-29T05:55:33.232Z,12.40
2022-09-29T05:58:00.953Z,13.93
2022-09-29T06:00:31.539Z,12.17
2022-09-29T06:03:00.761Z,12.20
2022-09-29T06:05:31.992Z,11.67
2022-09-29T06:08:05.153Z,10.87
2022-09-29T06:10:38.034Z,7.87
2022-09-29T06:13:08.789Z,9.27
2022-09-29T06:15:38.703Z,11.77
2022-09-29T06:18:11.698Z,11.67
2022-09-29T06:20:39.981Z,11.07
2022-09-29T06:23:10.486Z,18.77
2022-09-29T06:25:43.973Z,9.03
2022-09-29T06:28:11.739Z,15.63
2022-09-29T06:30:48.024Z,14.77
2022-09-29T06:33:22.540Z,10.80
2022-09-29T06:36:09.193Z,16.67
2022-09-29T06:38:51.146Z,11.40
2022-09-29T06:41:27.983Z,13.57
2022-09-29T06:43:57.639Z,14.50
2022-09-29T06:46:31.320Z,11.73
2022-09-29T06:49:02.165Z,14.57
2022-09-29T06:51:42.790Z,15.90
2022-09-29T06:54:22.078Z,16.17
2022-09-29T06:57:00.029Z,12.57
2022-09-29T06:59:29.600Z,10.27
2022-09-29T07:02:00.286Z,9.10
2022-09-29T07:04:30.380Z,13.87
2022-09-29T07:06:59.945Z,9.90
2022-09-29T07:09:39.829Z,13.77
2022-09-29T07:12:11.587Z,12.20
2022-09-29T07:14:39.964Z,11.17
2022-09-29T07:17:19.021Z,12.87
2022-09-29T07:19:50.240Z,10.57
2022-09-29T07:22:21.758Z,12.93
2022-09-29T07:24:58.057Z,11.27
2022-09-29T07:27:30.979Z,10.57
2022-09-29T07:30:04.065Z,10.30
2022-09-29T07:32:38.450Z,9.43
2022-09-29T07:35:29.127Z,10.90
2022-09-29T07:38:00.004Z,10.17
2022-09-29T07:40:47.783Z,8.97
2022-09-29T07:43:21.671Z,9.90
2022-09-29T07:45:59.610Z,10.93
2022-09-29T07:48:38.927Z,7.60
2022-09-29T07:51:19.461Z,11.80
2022-09-29T07:53:51.849Z,11.10
2022-09-29T07:56:33.194Z,8.30
2022-09-29T07:59:17.858Z,9.40
2022-09-29T08:01:50.801Z,11.80
2022-09-29T08:04:20.572Z,9.83
2022-09-29T08:06:50.441Z,9.57
2022-09-29T08:09:38.850Z,9.40
2022-09-29T08:12:09.858Z,10.93
2022-09-29T08:14:44.205Z,9.27
2022-09-29T08:17:18.854Z,9.80
2022-09-29T08:19:49.435Z,7.73
2022-09-29T08:22:23.590Z,8.93
2022-09-29T08:24:51.289Z,11.07
2022-09-29T08:27:29.473Z,9.80
2022-09-29T08:30:00.786Z,9.43
2022-09-29T08:32:31.871Z,9.90
2022-09-29T08:35:05.535Z,11.57
2022-09-29T08:37:40.289Z,9.50
2022-09-29T08:40:12.223Z,9.30
2022-09-29T08:43:00.233Z,9.60
2022-09-29T08:45:43.377Z,9.67
2022-09-29T08:48:27.198Z,10.27
2022-09-29T08:51:11.157Z,10.03
2022-09-29T08:54:01.656Z,9.30
2022-09-29T08:56:31.633Z,9.07
2022-09-29T08:59:00.855Z,8.90
2022-09-29T09:01:40.103Z,8.07
2022-09-29T09:04:40.258Z,7.83
2022-09-29T09:07:29.916Z,7.87
2022-09-29T09:10:31.785Z,9.07
2022-09-29T09:13:29.730Z,6.47
2022-09-29T09:16:20.259Z,5.97
2022-09-29T09:19:18.957Z,5.27
2022-09-29T09:21:59.590Z,4.33
2022-09-29T09:24:44.110Z,3.60
2022-09-29T09:27:23.809Z,2.80
2022-09-29T09:30:09.864Z,4.03
2022-09-29T09:32:51.059Z,4.17
2022-09-29T09:35:31.149Z,3.13
2022-09-29T09:38:21.304Z,2.83
2022-09-29T09:40:58.253Z,4.77
2022-09-29T09:43:39.560Z,3.47
2022-09-29T09:46:21.278Z,3.43
2022-09-29T09:48:57.202Z,3.53
2022-09-29T09:51:47.392Z,5.33
2022-09-29T09:54:33.399Z,3.80
2022-09-29T09:57:31.098Z,3.37
2022-09-29T10:00:11.301Z,3.87
2022-09-29T10:02:48.158Z,4.57
2022-09-29T10:05:18.995Z,5.10
2022-09-29T10:07:49.879Z,5.77
2022-09-29T10:10:22.469Z,4.43
2022-09-29T10:13:00.156Z,5.03
2022-09-29T10:15:40.942Z,3.83
2022-09-29T10:18:18.510Z,4.07
2022-09-29T10:20:51.167Z,3.77
2022-09-29T10:23:29.685Z,3.17
2022-09-29T10:26:06.498Z,4.23
2022-09-29T10:28:59.415Z,2.53
2022-09-29T10:31:34.114Z,3.03
2022-09-29T10:34:21.553Z,2.80
2022-09-29T10:37:07.832Z,4.43
2022-09-29T10:39:48.541Z,2.40
2022-09-29T10:42:25.545Z,2.87
2022-09-29T10:45:02.510Z,3.57
2022-09-29T10:47:30.973Z,2.20
2022-09-29T10:50:19.395Z,1.93
2022-09-29T10:52:58.369Z,1.93
2022-09-29T10:55:36.313Z,3.13
2022-09-29T10:58:43.875Z,2.07
2022-09-29T11:01:20.005Z,2.10
2022-09-29T11:04:01.348Z,4.77
2022-09-29T11:06:44.580Z,3.53
2022-09-29T11:09:40.790Z,3.93
2022-09-29T11:15:30.660Z,1.73
2022-09-29T11:18:00.626Z,1.93
2022-09-29T11:20:40.427Z,1.83
2022-09-29T11:23:33.323Z,3.57
2022-09-29T11:26:26.081Z,2.70
2022-09-29T11:29:23.437Z,2.23
2022-09-29T11:32:20.449Z,3.17
2022-09-29T11:35:10.918Z,1.93
2022-09-29T11:37:55.686Z,2.07
2022-09-29T11:40:39.464Z,1.20
2022-09-29T11:43:30.662Z,3.67
2022-09-29T11:46:12.253Z,1.23
2022-09-29T11:49:21.270Z,2.13
2022-09-29T11:52:09.845Z,1.30
2022-09-29T11:55:01.194Z,4.17
2022-09-29T11:57:50.804Z,1.07
2022-09-29T12:00:21.855Z,2.20
2022-09-29T12:03:30.516Z,1.70
2022-09-29T12:06:36.557Z,3.37
2022-09-29T12:09:49.632Z,3.90
2022-09-29T12:12:41.490Z,1.70
2022-09-29T12:15:40.953Z,1.93
2022-09-29T12:18:29.676Z,1.60
2022-09-29T12:21:03.071Z,3.60
2022-09-29T12:23:42.381Z,1.77
2022-09-29T12:26:19.665Z,2.90
2022-09-29T12:29:00.038Z,1.20
2022-09-29T12:31:42.531Z,1.90
2022-09-29T12:34:30.491Z,2.30
2022-09-29T12:37:21.921Z,6.20
2022-09-29T12:40:02.479Z,1.73
2022-09-29T12:42:51.013Z,1.60
2022-09-29T12:45:35.197Z,2.80
2022-09-29T12:48:40.783Z,1.30
2022-09-29T12:51:19.270Z,2.20
2022-09-29T12:54:02.278Z,2.40
2022-09-29T12:56:37.802Z,1.00
2022-09-29T12:59:20.564Z,2.60
2022-09-29T13:02:01.019Z,2.50
2022-09-29T13:05:01.267Z,1.43
2022-09-29T13:08:02.296Z,1.20
2022-09-29T13:10:51.930Z,2.03
2022-09-29T13:13:54.705Z,0.77
2022-09-29T13:16:49.653Z,0.80
2022-09-29T13:20:01.289Z,3.30
2022-09-29T13:22:59.137Z,1.43
2022-09-29T13:25:40.786Z,1.37
2022-09-29T13:28:38.050Z,1.00
2022-09-29T13:31:20.121Z,0.93
2022-09-29T13:34:01.385Z,0.70
2022-09-29T13:36:39.325Z,1.17
2022-09-29T13:39:21.684Z,1.27
2022-09-29T13:41:58.801Z,1.33
2022-09-29T13:44:40.400Z,0.90
2022-09-29T13:47:32.805Z,1.70
2022-09-29T13:50:19.495Z,2.97
2022-09-29T13:52:51.115Z,0.67
2022-09-29T13:55:57.403Z,1.70
2022-09-29T13:58:32.810Z,2.43
2022-09-29T14:01:10.864Z,1.60
2022-09-29T14:03:46.435Z,1.30
2022-09-29T14:06:40.348Z,2.20
2022-09-29T14:09:40.772Z,1.80
2022-09-29T14:12:30.049Z,0.97
2022-09-29T14:15:02.466Z,1.33
2022-09-29T14:17:41.145Z,0.93
2022-09-29T14:20:34.330Z,2.17
2022-09-29T14:23:11.219Z,0.77
2022-09-29T14:26:09.857Z,2.77
2022-09-29T14:28:50.604Z,1.97
2022-09-29T14:31:31.069Z,0.90
2022-09-29T14:34:12.411Z,0.87
2022-09-29T14:36:49.987Z,1.13
2022-09-29T14:39:41.483Z,1.93
2022-09-29T14:42:23.288Z,2.40
2022-09-29T14:45:12.769Z,1.43
2022-09-29T14:48:13.159Z,1.43
2022-09-29T14:51:12.192Z,1.17
2022-09-29T14:54:00.926Z,2.77
2022-09-29T14:57:00.572Z,0.70
2022-09-29T14:59:48.837Z,1.40
2022-09-29T15:02:30.458Z,1.17
2022-09-29T15:05:14.087Z,2.80
2022-09-29T15:08:02.272Z,3.17
2022-09-29T15:10:34.549Z,1.77
2022-09-29T15:13:31.743Z,1.70
2022-09-29T15:16:11.711Z,1.10
2022-09-29T15:19:02.514Z,0.70
2022-09-29T15:22:12.829Z,1.60
2022-09-29T15:25:12.868Z,0.87
2022-09-29T15:28:04.640Z,1.10
2022-09-29T15:30:42.150Z,2.20
2022-09-29T15:33:30.856Z,0.90
2022-09-29T15:36:20.789Z,3.13
2022-09-29T15:39:04.577Z,1.10
2022-09-29T15:41:48.224Z,2.03
2022-09-29T15:44:34.947Z,0.80
2022-09-29T15:47:32.118Z,1.10
2022-09-29T15:50:26.253Z,1.27
2022-09-29T15:53:01.822Z,1.57
2022-09-29T15:55:56.786Z,1.20
2022-09-29T15:58:54.734Z,1.77
2022-09-29T16:01:32.413Z,0.87
2022-09-29T16:04:14.409Z,1.20
2022-09-29T16:06:52.869Z,1.23
2022-09-29T16:09:25.333Z,4.10
2022-09-29T16:11:53.162Z,3.10
2022-09-29T16:14:36.697Z,1.97
2022-09-29T16:17:14.936Z,0.90
2022-09-29T16:19:58.888Z,0.97
2022-09-29T16:22:34.301Z,2.00
2022-09-29T16:25:50.467Z,0.87
2022-09-29T16:28:39.255Z,7.80
2022-09-29T16:31:31.941Z,2.13
2022-09-29T16:34:08.955Z,1.80
2022-09-29T16:37:04.690Z,1.80
2022-09-29T16:39:45.931Z,3.17
2022-09-29T16:42:40.296Z,1.50
2022-09-29T16:45:24.911Z,1.67
2022-09-29T16:47:52.810Z,0.80
2022-09-29T16:50:21.949Z,1.70
2022-09-29T16:53:03.045Z,1.17
2022-09-29T16:55:38.576Z,2.27
2022-09-29T16:58:20.571Z,2.23
2022-09-29T17:00:50.401Z,2.23
2022-09-29T17:03:24.999Z,1.00
2022-09-29T17:06:14.397Z,1.10
2022-09-29T17:08:48.979Z,1.30
2022-09-29T17:11:20.911Z,1.13
2022-09-29T17:13:49.828Z,2.57
2022-09-29T17:16:22.582Z,3.77
2022-09-29T17:19:04.358Z,2.23
2022-09-29T17:21:35.782Z,7.47
2022-09-29T17:24:11.004Z,8.50
2022-09-29T17:27:10.757Z,8.67
2022-09-29T17:29:42.252Z,6.30
2022-09-29T17:32:25.004Z,4.13
2022-09-29T17:35:02.123Z,3.60
2022-09-29T17:37:38.991Z,3.23
2022-09-29T17:40:36.857Z,5.07
2022-09-29T17:43:10.805Z,3.50
2022-09-29T17:45:45.231Z,3.93
2022-09-29T17:48:21.468Z,4.23
2022-09-29T17:51:01.833Z,3.73
2022-09-29T17:53:32.958Z,3.03
2022-09-29T17:56:09.828Z,6.40
2022-09-29T17:58:48.619Z,2.90
2022-09-29T18:01:33.287Z,4.17
2022-09-29T18:04:05.506Z,3.40
2022-09-29T18:06:41.166Z,4.80
2022-09-29T18:09:23.230Z,3.43
2022-09-29T18:12:00.486Z,2.80
2022-09-29T18:14:51.466Z,3.00
2022-09-29T18:17:25.222Z,3.60
2022-09-29T18:19:55.037Z,3.40
2022-09-29T18:22:23.352Z,3.20
2022-09-29T18:24:53.261Z,2.07
2022-09-29T18:27:27.881Z,3.07
2022-09-29T18:30:02.780Z,3.27
2022-09-29T18:32:40.167Z,5.10
2022-09-29T18:35:43.491Z,2.30
2022-09-29T18:38:30.619Z,2.33
2022-09-29T18:41:01.431Z,1.30
2022-09-29T18:43:48.487Z,2.47
2022-09-29T18:46:23.914Z,1.50
2022-09-29T18:49:00.097Z,1.97
2022-09-29T18:51:47.191Z,2.70
2022-09-29T18:54:32.560Z,2.93
2022-09-29T18:57:04.846Z,1.93
2022-09-29T18:59:43.678Z,2.80
2022-09-29T19:02:23.825Z,2.00
2022-09-29T19:04:59.899Z,2.83
2022-09-29T19:07:35.057Z,2.63
2022-09-29T19:10:13.517Z,3.00
2022-09-29T19:12:52.288Z,2.73
2022-09-29T19:15:23.450Z,2.73
2022-09-29T19:18:07.010Z,3.03
2022-09-29T19:20:48.643Z,3.33
2022-09-29T19:23:29.460Z,2.63
2022-09-29T19:26:12.731Z,3.93
2022-09-29T19:29:01.835Z,3.53
2022-09-29T19:31:50.282Z,3.70
2022-09-29T19:34:25.960Z,4.70
2022-09-29T19:36:59.535Z,4.00
2022-09-29T19:39:38.806Z,5.63
2022-09-29T19:42:19.687Z,3.47
2022-09-29T19:45:03.216Z,6.13
2022-09-29T19:48:12.872Z,6.33
2022-09-29T19:51:03.757Z,5.97
2022-09-29T19:53:59.117Z,5.07
2022-09-29T19:56:45.991Z,5.17
2022-09-29T19:59:20.077Z,5.50
2022-09-29T20:07:36.011Z,8.50
2022-09-29T20:10:19.945Z,6.30
2022-09-29T20:13:06.927Z,5.20
2022-09-29T20:15:50.353Z,6.03
2022-09-29T20:18:30.470Z,6.23
2022-09-29T20:21:26.896Z,7.20
2022-09-29T20:23:58.814Z,5.80
2022-09-29T20:26:35.956Z,6.77
2022-09-29T20:29:13.194Z,7.30
2022-09-29T20:32:02.721Z,6.93
2022-09-29T20:34:44.201Z,6.70
2022-09-29T20:37:32.418Z,8.47
2022-09-29T20:40:10.541Z,7.07
2022-09-29T20:42:42.824Z,7.93
2022-09-29T20:45:16.207Z,6.97
2022-09-29T20:47:46.247Z,6.17
2022-09-29T20:50:26.060Z,7.13
2022-09-29T20:53:00.683Z,7.47
2022-09-29T20:55:50.450Z,8.40
2022-09-29T20:58:44.206Z,7.07
2022-09-29T21:01:24.284Z,8.90
2022-09-29T21:04:01.061Z,7.40
2022-09-29T21:06:43.585Z,9.30
2022-09-29T21:09:26.485Z,7.67
2022-09-29T21:11:59.208Z,8.80
2022-09-29T21:14:31.977Z,6.50
2022-09-29T21:17:11.767Z,7.83
2022-09-29T21:19:42.465Z,8.00
2022-09-29T21:22:11.536Z,6.87
2022-09-29T21:24:41.533Z,8.97
2022-09-29T21:27:22.819Z,7.73
2022-09-29T21:30:07.427Z,9.10
2022-09-29T21:33:01.666Z,10.53
2022-09-29T21:35:31.187Z,9.83
2022-09-29T21:38:02.594Z,11.20
2022-09-29T21:40:33.158Z,10.67
2022-09-29T21:43:01.306Z,9.63
2022-09-29T21:45:31.909Z,6.53
2022-09-29T21:48:11.836Z,7.97
2022-09-29T21:50:41.623Z,8.37
2022-09-29T21:53:22.785Z,5.57
2022-09-29T21:55:52.841Z,4.70
2022-09-29T21:58:27.833Z,5.13
2022-09-29T22:00:59.130Z,3.10
2022-09-29T22:03:43.042Z,7.57
2022-09-29T22:09:09.261Z,5.63
2022-09-29T22:11:57.514Z,3.90
2022-09-29T22:14:29.954Z,3.60
2022-09-29T22:17:02.579Z,3.97
2022-09-29T22:19:35.802Z,3.27
2022-09-29T22:22:15.363Z,3.43
2022-09-29T22:24:47.114Z,3.30
2022-09-29T22:30:32.380Z,3.40
2022-09-29T22:33:02.734Z,3.27
2022-09-29T22:35:52.881Z,4.43
2022-09-29T22:38:29.410Z,3.87
2022-09-29T22:41:15.746Z,3.33
2022-09-29T22:44:09.582Z,4.53
2022-09-29T22:46:38.825Z,3.90
2022-09-29T22:49:11.992Z,6.53
2022-09-29T22:51:54.325Z,3.37
2022-09-29T22:54:41.262Z,3.40
2022-09-29T22:57:25.392Z,3.20
2022-09-29T23:00:01.197Z,3.03
2022-09-29T23:02:34.213Z,3.23
2022-09-29T23:05:13.079Z,3.70
2022-09-29T23:07:53.630Z,3.73
2022-09-29T23:10:42.600Z,5.57
2022-09-29T23:13:43.307Z,3.73
2022-09-29T23:16:16.872Z,4.53
2022-09-29T23:19:10.715Z,2.73
2022-09-29T23:21:47.546Z,2.27
2022-09-29T23:24:42.238Z,2.57
2022-09-29T23:27:23.223Z,2.63
2022-09-29T23:30:00.213Z,2.93
2022-09-29T23:32:37.399Z,3.00
2022-09-29T23:35:19.957Z,2.67
2022-09-29T23:38:09.488Z,2.67
2022-09-29T23:40:49.826Z,2.90
2022-09-29T23:43:33.737Z,2.40
2022-09-29T23:46:13.505Z,3.77
2022-09-29T23:49:00.718Z,2.73
2022-09-29T23:54:29.119Z,2.77
2022-09-29T23:57:13.953Z,4.70
2022-09-29T23:59:44.045Z,2.00
